Time;durP1;ratioP1;P1;durP2;ratioP2;P2;SDS_P1;SDS_P2;PMS_P1;PMS_P2;Temp;Humidity;BMP_temperature;BMP_pressure;BME280_temperature;BME280_humidity;BME280_pressure;Samples;Min_cycle;Max_cycle;Signal;HPM_P1;HPM_P2
2022/11/24 00:01:15;;;;;;;0.55;0.55;;;;;;;6.84;89.08;98160.66;4305744;33;35922;-78
2022/11/24 00:03:45;;;;;;;1.98;1.80;;;;;;;6.52;91.14;98169.75;4305649;33;34536;-79
2022/11/24 00:06:14;;;;;;;0.77;0.77;;;;;;;6.95;88.64;98157.91;4304619;33;34535;-73
2022/11/24 00:08:44;;;;;;;1.92;1.80;;;;;;;7.00;87.86;98158.72;4304944;33;34698;-78
2022/11/24 00:11:18;;;;;;;0.50;0.50;;;;;;;6.94;88.08;98164.84;4305649;33;35038;-80
2022/11/24 00:13:46;;;;;;;0.60;0.60;;;;;;;6.99;87.36;98160.44;4305847;33;34388;-78
2022/11/24 00:16:18;;;;;;;1.58;1.48;;;;;;;6.82;88.47;98165.88;4305685;33;34361;-78
2022/11/24 00:18:47;;;;;;;2.00;1.85;;;;;;;6.91;88.69;98167.47;4305714;33;33947;-80
2022/11/24 00:21:17;;;;;;;1.75;1.23;;;;;;;6.81;88.38;98173.66;4305638;33;34172;-79
2022/11/24 00:23:45;;;;;;;1.77;1.67;;;;;;;7.11;87.11;98171.47;4304386;33;34871;-79
2022/11/24 00:26:19;;;;;;;1.25;1.20;;;;;;;6.93;87.57;98173.47;4305783;33;34326;-73
2022/11/24 00:28:49;;;;;;;0.60;0.60;;;;;;;6.93;88.55;98183.81;4305562;33;33967;-80
2022/11/24 00:31:21;;;;;;;0.80;0.80;;;;;;;7.06;87.88;98183.62;4305487;33;34349;-72
2022/11/24 00:33:53;;;;;;;0.50;0.50;;;;;;;7.00;87.47;98187.19;4304380;33;34418;-73
2022/11/24 00:36:23;;;;;;;0.98;0.98;;;;;;;6.77;88.50;98188.34;4305820;33;33269;-80
2022/11/24 00:38:56;;;;;;;2.92;2.62;;;;;;;6.47;90.88;98179.28;4305584;33;33891;-80
2022/11/24 00:41:25;;;;;;;0.50;0.50;;;;;;;6.71;89.93;98190.19;4292512;33;35117;-72
2022/11/24 00:43:54;;;;;;;1.23;1.20;;;;;;;6.59;89.85;98192.06;4305404;33;35193;-78
2022/11/24 00:46:23;;;;;;;0.62;0.62;;;;;;;6.33;91.11;98191.53;4305528;33;34249;-80
2022/11/24 00:48:52;;;;;;;0.88;0.88;;;;;;;6.45;91.43;98196.56;4305410;33;34541;-79
2022/11/24 00:51:24;;;;;;;3.25;2.97;;;;;;;6.50;91.45;98197.34;4305544;33;35960;-79
2022/11/24 00:53:54;;;;;;;0.60;0.60;;;;;;;6.69;90.27;98203.16;4304587;33;35363;-79
2022/11/24 00:56:23;;;;;;;0.98;0.98;;;;;;;6.76;89.54;98202.19;4305430;33;33695;-80
2022/11/24 00:58:51;;;;;;;1.33;1.23;;;;;;;6.39;91.13;98201.81;4305437;33;34006;-78
2022/11/24 01:01:22;;;;;;;8.70;2.15;;;;;;;6.14;91.61;98216.75;4305360;33;35130;-79
2022/11/24 01:03:51;;;;;;;2.90;2.70;;;;;;;6.44;90.71;98211.22;4292375;33;35155;-78
2022/11/24 01:06:22;;;;;;;1.83;1.73;;;;;;;6.07;92.02;98221.09;4292371;33;34369;-79
2022/11/24 01:08:51;;;;;;;1.00;1.00;;;;;;;6.35;91.67;98213.91;4305420;33;34777;-78
2022/11/24 01:11:22;;;;;;;2.50;2.37;;;;;;;6.35;91.20;98216.47;4305363;33;34614;-79
2022/11/24 01:13:53;;;;;;;3.65;3.35;;;;;;;6.48;90.21;98219.81;4305280;33;35336;-79
2022/11/24 01:16:30;;;;;;;2.20;1.85;;;;;;;6.51;90.59;98217.19;4304122;33;34193;-72
2022/11/24 01:18:59;;;;;;;1.67;1.58;;;;;;;6.61;89.60;98215.31;4305358;33;34991;-80
2022/11/24 01:21:28;;;;;;;1.67;1.58;;;;;;;6.35;90.80;98218.22;4305216;33;35579;-78
2022/11/24 01:23:56;;;;;;;2.45;2.25;;;;;;;6.36;90.74;98218.22;4305140;33;34511;-80
2022/11/24 01:26:25;;;;;;;0.95;0.90;;;;;;;6.43;91.45;98216.41;4305201;33;34346;-72
2022/11/24 01:28:54;;;;;;;2.97;2.78;;;;;;;6.79;90.02;98217.69;4305209;33;33919;-79
2022/11/24 01:31:23;;;;;;;3.97;2.25;;;;;;;6.75;88.91;98225.50;4291840;33;35913;-79
2022/11/24 01:33:52;;;;;;;3.33;3.03;;;;;;;6.39;91.50;98219.91;4305196;33;34504;-80
2022/11/24 01:36:20;;;;;;;4.50;4.07;;;;;;;6.25;92.48;98222.66;4305251;33;33526;-79
2022/11/24 01:38:49;;;;;;;2.15;1.95;;;;;;;6.63;90.12;98232.50;4304268;33;33767;-79
2022/11/24 01:41:20;;;;;;;3.15;2.85;;;;;;;6.52;90.15;98226.63;4304513;33;34926;-78
2022/11/24 01:43:49;;;;;;;4.18;3.87;;;;;;;6.43;90.49;98225.00;4303770;33;34931;-78
2022/11/24 01:46:42;;;;;;;1.90;1.70;;;;;;;6.94;88.63;98231.28;4305418;33;33665;-77
2022/11/24 01:49:16;;;;;;;1.75;1.33;;;;;;;6.80;89.03;98229.72;4303993;33;34031;-79
2022/11/24 01:51:49;;;;;;;1.00;1.00;;;;;;;6.57;89.67;98231.75;4305281;33;34911;-78
2022/11/24 01:54:26;;;;;;;1.58;1.42;;;;;;;6.52;89.31;98229.22;4305127;33;34452;-79
2022/11/24 01:56:59;;;;;;;3.42;3.15;;;;;;;6.49;89.95;98233.56;4305129;33;34367;-79
2022/11/24 01:59:27;;;;;;;2.15;1.23;;;;;;;6.74;88.75;98235.00;4304049;33;33969;-78
2022/11/24 02:01:56;;;;;;;1.87;1.77;;;;;;;6.55;90.16;98236.94;4303863;33;35174;-79
2022/11/24 02:04:27;;;;;;;3.08;2.80;;;;;;;6.50;90.66;98228.38;4304930;33;35171;-80
2022/11/24 02:06:56;;;;;;;2.45;2.25;;;;;;;6.04;92.65;98231.50;4304754;33;33390;-79
2022/11/24 02:09:47;;;;;;;3.05;2.85;;;;;;;6.69;89.45;98228.13;4291911;33;34055;-79
2022/11/24 02:12:16;;;;;;;2.45;1.85;;;;;;;6.92;88.00;98233.88;4302675;33;35789;-75
2022/11/24 02:14:44;;;;;;;1.98;1.75;;;;;;;6.52;89.46;98224.03;4304855;33;35278;-80
2022/11/24 02:17:12;;;;;;;1.00;1.00;;;;;;;6.59;89.21;98230.00;4304946;33;33456;-80
2022/11/24 02:19:56;;;;;;;1.48;1.42;;;;;;;6.30;88.88;98228.62;4304943;33;34061;-79
2022/11/24 02:22:30;;;;;;;3.12;2.92;;;;;;;6.45;89.43;98219.84;4304941;33;35770;-79
2022/11/24 02:25:09;;;;;;;3.67;3.08;;;;;;;5.89;92.87;98235.94;4304841;33;35199;-78
2022/11/24 02:27:37;;;;;;;2.45;1.80;;;;;;;6.29;90.10;98226.06;4304936;33;33432;-78
2022/11/24 02:30:06;;;;;;;2.17;2.05;;;;;;;6.37;89.32;98229.41;4304800;33;34512;-75
2022/11/24 02:32:34;;;;;;;0.77;0.77;;;;;;;6.24;89.51;98233.84;4304613;33;35893;-81
2022/11/24 02:35:04;;;;;;;2.47;2.28;;;;;;;6.06;89.73;98230.59;4303585;33;35183;-80
2022/11/24 02:37:33;;;;;;;4.85;4.53;;;;;;;6.23;89.16;98242.50;4304880;33;33659;-81
2022/11/24 02:40:01;;;;;;;2.83;2.67;;;;;;;5.98;89.33;98241.88;4304815;33;34010;-80
2022/11/24 02:42:32;;;;;;;1.62;1.55;;;;;;;6.24;88.56;98242.47;4304698;33;35215;-80
2022/11/24 02:45:01;;;;;;;4.87;4.37;;;;;;;6.22;89.76;98244.22;4291812;33;35243;-79
2022/11/24 02:47:29;;;;;;;5.45;2.53;;;;;;;6.05;89.72;98239.25;4304684;33;33525;-82
2022/11/24 02:49:57;;;;;;;3.00;2.80;;;;;;;6.04;89.31;98232.34;4304650;33;34029;-80
2022/11/24 02:52:26;;;;;;;4.05;2.97;;;;;;;5.95;90.10;98231.53;4304639;33;35011;-80
2022/11/24 02:54:54;;;;;;;1.48;1.27;;;;;;;5.88;90.93;98235.94;4304674;33;34348;-79
2022/11/24 02:57:22;;;;;;;2.60;2.42;;;;;;;5.95;90.53;98231.53;4304719;33;34141;-79
2022/11/24 02:59:50;;;;;;;16.42;4.80;;;;;;;6.04;88.93;98240.09;4304612;33;33910;-80
2022/11/24 03:02:18;;;;;;;1.77;1.67;;;;;;;5.86;89.79;98235.09;4304494;33;35832;-79
2022/11/24 03:04:47;;;;;;;2.70;2.50;;;;;;;5.83;90.48;98246.31;4304479;33;34537;-79
2022/11/24 03:07:15;;;;;;;12.23;6.22;;;;;;;5.93;89.87;98238.47;4304676;33;33295;-80
2022/11/24 03:09:43;;;;;;;7.32;5.55;;;;;;;5.95;89.19;98236.72;4304553;33;34762;-80
2022/11/24 03:12:11;;;;;;;3.03;2.72;;;;;;;5.70;90.70;98247.31;4304569;33;34999;-80
2022/11/24 03:14:39;;;;;;;1.77;1.67;;;;;;;5.81;90.26;98244.62;4304444;33;34526;-82
2022/11/24 03:17:07;;;;;;;1.62;1.52;;;;;;;5.70;90.25;98247.31;4303561;33;33565;-81
2022/11/24 03:19:35;;;;;;;3.58;2.58;;;;;;;5.91;88.68;98253.13;4304320;33;33966;-81
2022/11/24 03:22:04;;;;;;;1.87;1.70;;;;;;;5.47;90.80;98250.94;4304306;33;35966;-72
2022/11/24 03:24:32;;;;;;;3.78;1.98;;;;;;;5.49;90.75;98256.94;4304196;33;34656;-81
2022/11/24 03:27:00;;;;;;;4.55;3.67;;;;;;;5.67;89.96;98250.75;4304406;33;34290;-80
2022/11/24 03:29:29;;;;;;;1.42;1.40;;;;;;;5.67;90.48;98252.50;4304319;33;34863;-79
2022/11/24 03:31:57;;;;;;;1.37;1.30;;;;;;;5.77;89.18;98248.97;4303999;33;35193;-80
2022/11/24 03:34:25;;;;;;;2.78;2.58;;;;;;;5.63;89.53;98248.19;4304219;33;34412;-81
2022/11/24 03:36:54;;;;;;;8.88;8.00;;;;;;;5.61;89.45;98252.53;4304126;33;33437;-79
2022/11/24 03:39:21;;;;;;;4.47;2.30;;;;;;;5.63;89.92;98255.94;4304220;33;34011;-79
2022/11/24 03:41:52;;;;;;;6.50;3.67;;;;;;;5.70;88.18;98248.16;4304008;33;35139;-78
2022/11/24 03:44:21;;;;;;;1.42;1.33;;;;;;;5.77;88.67;98253.25;4304069;33;35358;-79
2022/11/24 03:46:50;;;;;;;7.97;6.72;;;;;;;5.69;89.17;98254.16;4304004;33;33320;-79
2022/11/24 03:49:18;;;;;;;4.22;3.95;;;;;;;5.59;89.28;98255.09;4303889;33;34804;-75
2022/11/24 03:51:47;;;;;;;2.33;2.12;;;;;;;5.66;89.61;98263.66;4304276;33;35858;-78
2022/11/24 03:54:15;;;;;;;2.25;2.15;;;;;;;5.88;88.78;98267.78;4303955;33;34449;-80
2022/11/24 03:56:43;;;;;;;14.68;6.12;;;;;;;5.85;87.84;98266.97;4303940;33;34292;-79
2022/11/24 03:59:11;;;;;;;2.70;2.50;;;;;;;5.96;87.54;98266.88;4303972;33;34727;-78
2022/11/24 04:01:39;;;;;;;1.87;1.62;;;;;;;5.74;87.23;98274.81;4303828;33;35890;-80
2022/11/24 04:04:10;;;;;;;2.30;2.17;;;;;;;5.80;87.75;98273.88;4303730;33;34283;-79
2022/11/24 04:06:38;;;;;;;1.08;1.08;;;;;;;5.49;87.97;98264.69;4303830;33;33545;-74
2022/11/24 04:09:07;;;;;;;2.25;2.15;;;;;;;5.25;87.82;98265.69;4302691;33;34609;-80
2022/11/24 04:14:22;;;;;;;1.70;1.60;;;;;;;5.47;86.07;98268.13;4303647;33;34432;-80
2022/11/24 04:16:50;;;;;;;3.25;2.67;;;;;;;5.42;86.25;98273.34;4303690;33;33711;-78
2022/11/24 04:19:18;;;;;;;2.75;2.45;;;;;;;5.51;86.62;98281.00;4303575;33;33915;-74
2022/11/24 04:21:46;;;;;;;1.70;1.60;;;;;;;5.29;87.66;98285.47;4303566;33;34746;-80
2022/11/24 04:24:15;;;;;;;9.18;5.50;;;;;;;5.70;85.80;98280.88;4303502;33;34553;-80
2022/11/24 04:26:43;;;;;;;2.92;2.72;;;;;;;5.85;84.44;98291.06;4303622;33;33532;-80
2022/11/24 04:29:11;;;;;;;3.80;3.60;;;;;;;5.48;86.14;98296.50;4304687;33;34004;-79
2022/11/24 04:31:39;;;;;;;2.17;2.00;;;;;;;5.30;86.87;98294.06;4305324;33;35937;-74
2022/11/24 04:34:07;;;;;;;5.28;4.25;;;;;;;5.62;86.65;98305.91;4305542;33;35085;-79
2022/11/24 04:36:35;;;;;;;1.33;1.30;;;;;;;5.31;86.75;98300.94;4305653;33;33351;-81
2022/11/24 04:39:04;;;;;;;2.42;2.20;;;;;;;5.59;85.41;98311.94;4305480;33;34674;-80
2022/11/24 04:41:52;;;;;;;1.70;1.60;;;;;;;5.48;86.32;98324.06;4305560;33;35160;-80
2022/11/24 04:44:20;;;;;;;4.97;2.75;;;;;;;5.57;85.16;98323.16;4305453;33;34535;-80
2022/11/24 04:46:49;;;;;;;7.22;3.65;;;;;;;5.47;85.30;98338.72;4305454;33;34252;-74
2022/11/24 04:49:17;;;;;;;3.15;2.85;;;;;;;5.42;85.94;98332.72;4304413;33;34781;-80
2022/11/24 04:51:45;;;;;;;5.40;4.62;;;;;;;5.34;85.20;98331.91;4305459;33;35053;-80
2022/11/24 04:54:14;;;;;;;4.10;3.80;;;;;;;5.30;86.34;98335.38;4305375;33;34483;-80
2022/11/24 04:56:42;;;;;;;11.10;3.35;;;;;;;5.50;84.86;98338.66;4305506;33;34261;-80
2022/11/24 04:59:13;;;;;;;1.55;1.48;;;;;;;5.24;86.42;98343.12;4305461;33;34778;-80
2022/11/24 05:01:42;;;;;;;5.97;5.40;;;;;;;5.01;86.66;98338.97;4305378;33;34286;-79
2022/11/24 05:04:11;;;;;;;3.55;3.05;;;;;;;5.08;87.23;98340.66;4305217;33;34565;-76
2022/11/24 05:06:40;;;;;;;2.15;2.05;;;;;;;5.54;84.99;98354.16;4292486;33;33619;-80
2022/11/24 05:09:13;;;;;;;0.98;0.98;;;;;;;5.43;85.28;98357.66;4305287;33;34041;-79
2022/11/24 05:11:42;;;;;;;5.12;1.45;;;;;;;5.82;82.93;98349.66;4292350;33;35055;-79
2022/11/24 05:14:10;;;;;;;2.92;2.80;;;;;;;5.63;83.13;98359.25;4305495;33;34576;-76
2022/11/24 05:16:39;;;;;;;4.12;3.75;;;;;;;5.37;83.78;98352.53;4305377;33;33481;-78
2022/11/24 05:19:07;;;;;;;4.25;3.40;;;;;;;5.27;84.64;98351.72;4305180;33;34044;-75
2022/11/24 05:21:35;;;;;;;1.92;1.83;;;;;;;5.50;83.99;98361.06;4305231;33;35121;-80
2022/11/24 05:24:04;;;;;;;9.82;7.05;;;;;;;5.57;83.37;98364.47;4305203;33;35185;-79
2022/11/24 05:26:34;;;;;;;5.93;2.53;;;;;;;5.40;84.26;98369.72;4305285;33;34278;-80
2022/11/24 05:29:02;;;;;;;0.95;0.93;;;;;;;5.19;84.36;98362.94;4305247;33;33599;-80
2022/11/24 05:31:30;;;;;;;1.25;1.25;;;;;;;5.49;84.16;98361.94;4304918;33;35049;-79
2022/11/24 05:33:58;;;;;;;4.18;3.35;;;;;;;5.53;83.71;98363.63;4305164;33;35264;-74
2022/11/24 05:39:13;;;;;;;1.45;1.35;;;;;;;5.16;84.64;98365.56;4305207;33;33933;-79
2022/11/24 05:41:41;;;;;;;5.65;2.72;;;;;;;5.03;85.35;98363.03;4304624;33;35800;-80
2022/11/24 05:44:09;;;;;;;1.30;1.15;;;;;;;5.11;85.70;98374.16;4305052;33;35220;-78
2022/11/24 05:46:37;;;;;;;0.75;0.75;;;;;;;5.02;85.85;98371.63;4305247;33;33490;-77
2022/11/24 05:49:05;;;;;;;3.25;2.45;;;;;;;5.07;85.46;98381.94;4305107;33;34004;-79
2022/11/24 05:51:33;;;;;;;7.00;5.70;;;;;;;5.05;85.89;98371.63;4305041;33;34937;-72
2022/11/24 05:54:02;;;;;;;1.70;1.60;;;;;;;5.05;85.76;98368.19;4305006;33;34726;-78
2022/11/24 05:56:30;;;;;;;6.53;5.93;;;;;;;5.38;83.30;98376.63;4305128;33;34423;-74
2022/11/24 05:58:58;;;;;;;3.72;3.42;;;;;;;5.09;85.55;98375.03;4305009;33;33921;-79
2022/11/24 06:01:26;;;;;;;3.67;3.37;;;;;;;5.10;85.14;98385.37;4305053;33;35069;-79
2022/11/24 06:03:55;;;;;;;1.77;1.70;;;;;;;5.30;84.07;98389.56;4305033;33;34428;-80
2022/11/24 06:06:23;;;;;;;1.73;1.62;;;;;;;5.31;83.30;98399.00;4304926;33;34168;-79
2022/11/24 06:08:51;;;;;;;2.62;2.35;;;;;;;5.15;84.37;98405.97;4304936;33;33866;-73
2022/11/24 06:11:20;;;;;;;2.35;2.15;;;;;;;5.29;83.55;98411.06;4298806;33;36072;-74
2022/11/24 06:13:48;;;;;;;2.42;1.67;;;;;;;5.17;84.37;98406.84;4304933;33;35157;-74
2022/11/24 06:16:16;;;;;;;1.75;1.65;;;;;;;5.47;83.12;98410.13;4304985;33;34288;-77
2022/11/24 06:18:45;;;;;;;4.03;1.83;;;;;;;5.28;84.08;98417.13;4304910;33;34133;-80
2022/11/24 06:21:13;;;;;;;2.65;2.45;;;;;;;5.39;83.13;98417.91;4305228;33;35149;-79
2022/11/24 06:23:41;;;;;;;5.57;1.48;;;;;;;5.49;82.88;98429.91;4304800;33;34580;-79
2022/11/24 06:26:09;;;;;;;2.03;1.90;;;;;;;5.19;83.49;98436.09;4304787;33;34262;-79
2022/11/24 06:28:37;;;;;;;1.23;1.05;;;;;;;5.40;83.37;98435.12;4304869;33;33867;-79
2022/11/24 06:31:05;;;;;;;1.77;1.67;;;;;;;5.53;82.20;98445.41;4304665;33;36001;-78
2022/11/24 06:33:35;;;;;;;3.37;3.05;;;;;;;5.53;82.77;98445.41;4304786;33;34623;-75
2022/11/24 06:36:06;;;;;;;1.58;1.48;;;;;;;5.84;80.74;98454.69;4304926;33;33660;-80
2022/11/24 06:38:35;;;;;;;10.27;1.77;;;;;;;5.78;80.80;98454.72;4305008;33;34538;-73
2022/11/24 06:41:05;;;;;;;1.98;1.80;;;;;;;5.62;80.75;98458.25;4304819;33;34579;-78
2022/11/24 06:43:34;;;;;;;0.85;0.85;;;;;;;5.61;81.61;98469.44;4292069;33;33781;-78
2022/11/24 06:46:03;;;;;;;2.12;2.03;;;;;;;5.90;79.38;98461.56;4304705;33;33534;-78
2022/11/24 06:48:31;;;;;;;2.78;2.20;;;;;;;5.43;82.87;98460.06;4303633;33;34714;-78
2022/11/24 06:51:05;;;;;;;5.25;4.78;;;;;;;5.47;81.92;98467.81;4304548;33;35203;-73
2022/11/24 06:53:37;;;;;;;1.62;1.52;;;;;;;5.24;84.40;98474.75;4303649;33;34429;-78
2022/11/24 06:56:10;;;;;;;2.15;2.05;;;;;;;5.63;82.08;98478.91;4304724;33;33582;-79
2022/11/24 06:58:44;;;;;;;2.42;2.12;;;;;;;5.37;83.14;98466.12;4292143;33;34607;-79
2022/11/24 07:01:23;;;;;;;1.90;1.80;;;;;;;5.36;83.29;98474.72;4303432;33;33907;-79
2022/11/24 07:03:52;;;;;;;3.90;2.40;;;;;;;5.58;82.62;98479.81;4304654;33;34507;-79
2022/11/24 07:06:22;;;;;;;2.65;2.45;;;;;;;5.27;85.10;98487.66;4304496;33;34270;-79
2022/11/24 07:08:51;;;;;;;2.37;2.25;;;;;;;5.50;82.81;98488.44;4304518;33;33901;-79
2022/11/24 07:11:21;;;;;;;4.85;4.18;;;;;;;5.66;82.59;98490.94;4303451;33;35806;-74
2022/11/24 07:13:52;;;;;;;2.37;2.17;;;;;;;5.37;84.49;98494.50;4304581;33;34560;-74
2022/11/24 07:16:27;;;;;;;0.68;0.68;;;;;;;5.37;85.19;98502.25;4304663;33;33471;-75
2022/11/24 07:18:56;;;;;;;5.20;3.37;;;;;;;5.28;85.68;98502.28;4304553;33;34023;-79
2022/11/24 07:21:25;;;;;;;4.05;3.53;;;;;;;5.71;83.68;98502.13;4279695;33;35829;-78
2022/11/24 07:23:55;;;;;;;3.47;1.45;;;;;;;5.65;83.69;98510.75;4303367;33;35095;-79
2022/11/24 07:26:24;;;;;;;2.78;2.17;;;;;;;5.83;81.37;98516.72;4304570;33;32729;-75
2022/11/24 07:28:52;;;;;;;2.53;2.33;;;;;;;5.86;80.93;98509.81;4304403;33;33846;-75
2022/11/24 07:31:23;;;;;;;2.78;2.58;;;;;;;6.37;77.71;98513.81;4304196;33;34957;-77
2022/11/24 07:33:53;;;;;;;0.50;0.50;;;;;;;6.27;77.91;98515.63;4291552;33;35228;-78
2022/11/24 07:36:22;;;;;;;1.95;1.85;;;;;;;5.92;78.29;98514.06;4304145;33;34475;-75
2022/11/24 07:38:50;;;;;;;1.65;1.45;;;;;;;6.40;76.10;98516.38;4303073;33;32602;-72
2022/11/24 07:41:19;;;;;;;1.87;1.77;;;;;;;6.25;76.61;98520.78;4291185;33;35959;-75
2022/11/24 07:43:47;;;;;;;1.58;1.48;;;;;;;6.35;77.04;98520.72;4304140;33;34608;-76
2022/11/24 07:46:18;;;;;;;1.15;1.15;;;;;;;6.23;77.25;98521.69;4291510;33;33677;-77
2022/11/24 07:48:46;;;;;;;4.35;2.58;;;;;;;6.31;76.89;98524.22;4304237;33;33893;-75
2022/11/24 07:51:14;;;;;;;2.60;2.47;;;;;;;6.14;79.11;98524.31;4302980;33;34997;-75
2022/11/24 07:53:43;;;;;;;3.28;2.87;;;;;;;6.13;78.80;98526.03;4304079;33;35011;-74
2022/11/24 07:56:12;;;;;;;1.62;1.52;;;;;;;6.27;79.53;98523.37;4303986;33;33332;-77
2022/11/24 07:58:39;;;;;;;6.30;4.25;;;;;;;6.22;79.44;98515.63;4302826;33;33839;-76
2022/11/24 08:01:12;;;;;;;0.80;0.80;;;;;;;6.37;77.96;98522.44;4303858;33;35036;-75
2022/11/24 08:03:41;;;;;;;2.05;1.85;;;;;;;6.40;78.74;98518.97;4303517;33;34593;-74
2022/11/24 08:06:09;;;;;;;4.15;3.87;;;;;;;6.52;78.89;98525.78;4305689;33;33408;-78
2022/11/24 08:08:58;;;;;;;3.85;3.55;;;;;;;6.73;77.54;98527.34;4295256;33;34811;-77
2022/11/24 08:11:26;;;;;;;3.45;3.25;;;;;;;6.34;79.20;98527.63;4305780;33;35109;-78
2022/11/24 08:13:54;;;;;;;4.47;4.03;;;;;;;6.49;78.08;98526.66;4292672;33;35201;-77
2022/11/24 08:16:22;;;;;;;2.40;2.20;;;;;;;6.43;78.47;98537.06;4305771;33;33442;-75
2022/11/24 08:18:53;;;;;;;6.32;3.60;;;;;;;6.39;78.50;98528.47;4305639;33;33972;-72
2022/11/24 08:21:22;;;;;;;1.40;1.27;;;;;;;6.31;79.60;98531.97;4305565;33;35820;-77
2022/11/24 08:23:56;;;;;;;0.88;0.88;;;;;;;6.37;78.94;98544.84;4292793;33;34492;-77
2022/11/24 08:26:24;;;;;;;1.87;1.70;;;;;;;6.66;77.55;98536.03;4305570;33;33685;-77
2022/11/24 08:28:55;;;;;;;2.37;1.80;;;;;;;6.82;77.43;98553.13;4295608;33;298236;-75
2022/11/24 08:31:26;;;;;;;5.20;2.42;;;;;;;6.85;77.40;98553.13;4305451;33;35790;-77
2022/11/24 08:33:55;;;;;;;5.22;2.67;;;;;;;6.88;77.32;98554.81;4292749;33;33948;-78
2022/11/24 08:36:23;;;;;;;2.67;2.47;;;;;;;6.66;78.03;98556.72;4305577;33;34248;-78
2022/11/24 08:38:55;;;;;;;1.02;1.02;;;;;;;6.61;77.90;98549.84;4305599;33;34083;-77
2022/11/24 08:41:24;;;;;;;2.17;2.08;;;;;;;6.73;77.19;98550.63;4305519;33;36080;-80
2022/11/24 08:43:53;;;;;;;2.92;2.10;;;;;;;6.69;78.48;98559.28;4305592;33;34415;-76
2022/11/24 08:46:21;;;;;;;2.35;1.80;;;;;;;6.60;78.65;98561.06;4305480;33;34373;-80
2022/11/24 08:48:51;;;;;;;2.55;2.35;;;;;;;6.75;78.00;98556.66;4305476;33;34359;-79
2022/11/24 08:51:23;;;;;;;0.88;0.88;;;;;;;6.63;77.20;98558.44;4305512;33;36022;-74
2022/11/24 08:53:56;;;;;;;1.95;1.85;;;;;;;6.89;77.39;98556.53;4305535;33;35332;-74
2022/11/24 08:56:27;;;;;;;2.17;2.05;;;;;;;6.83;76.86;98560.91;4305821;33;33550;-78
2022/11/24 08:58:55;;;;;;;6.45;2.20;;;;;;;6.51;77.34;98553.41;4305440;33;33095;-78
2022/11/24 09:01:24;;;;;;;8.23;4.30;;;;;;;6.51;76.25;98550.81;4292428;33;35117;-77
2022/11/24 09:03:52;;;;;;;3.25;1.90;;;;;;;6.41;77.15;98564.66;4305343;33;34468;-76
2022/11/24 09:06:24;;;;;;;2.85;2.12;;;;;;;6.43;77.16;98557.75;4292340;33;33477;-73
2022/11/24 09:08:54;;;;;;;5.57;3.60;;;;;;;6.40;76.51;98557.75;4292424;33;33826;-77
2022/11/24 09:11:24;;;;;;;3.47;2.62;;;;;;;6.42;76.16;98563.78;4305272;33;35363;-79
2022/11/24 09:13:52;;;;;;;2.15;1.85;;;;;;;6.36;76.51;98569.84;4305289;33;34504;-73
2022/11/24 09:16:23;;;;;;;1.30;1.30;;;;;;;6.33;77.04;98577.63;4303367;33;34303;-76
2022/11/24 09:19:00;;;;;;;2.47;2.28;;;;;;;6.22;76.79;98567.34;4305640;33;34721;-74
2022/11/24 09:21:28;;;;;;;;;;;;;;;6.36;76.66;98579.34;4304514;33;35955;-78
2022/11/24 09:23:56;;;;;;;2.17;2.03;;;;;;;6.40;77.38;98581.03;4304424;33;34745;-79
2022/11/24 09:26:29;;;;;;;3.28;3.08;;;;;;;6.49;76.36;98582.69;4304066;33;33452;-78
2022/11/24 09:28:59;;;;;;;1.70;1.60;;;;;;;6.51;77.05;98587.00;4303265;33;34069;-78
2022/11/24 09:31:29;;;;;;;2.25;2.15;;;;;;;6.36;76.83;98587.09;4291295;33;35060;-78
2022/11/24 09:33:58;;;;;;;3.95;3.45;;;;;;;6.61;76.19;98585.22;4295753;33;34631;-80
2022/11/24 09:36:27;;;;;;;1.52;1.30;;;;;;;6.47;77.22;98587.03;4305183;33;33336;-78
2022/11/24 09:38:54;;;;;;;2.28;1.45;;;;;;;6.40;77.54;98589.63;4305154;33;33962;-80
2022/11/24 09:41:50;;;;;;;1.65;1.55;;;;;;;6.39;78.04;98590.53;4305024;33;35278;-74
2022/11/24 09:44:40;;;;;;;1.10;1.05;;;;;;;6.35;78.69;98595.72;4296613;33;34591;-79
2022/11/24 09:47:41;;;;;;;1.65;1.50;;;;;;;6.39;78.49;98585.34;4290687;33;33576;-78
2022/11/24 09:50:24;;;;;;;3.58;3.28;;;;;;;6.34;79.74;98587.09;4286781;33;34706;-79
2022/11/24 09:53:23;;;;;;;2.12;2.03;;;;;;;6.56;80.25;98593.00;4298294;33;35038;-75
2022/11/24 09:56:02;;;;;;;2.45;2.30;;;;;;;6.79;79.07;98595.44;4318456;33;34374;-76
2022/11/24 09:58:49;;;;;;;3.15;2.72;;;;;;;6.92;79.70;98591.00;4306579;33;34351;-79
2022/11/24 10:01:28;;;;;;;1.27;1.27;;;;;;;7.01;77.84;98596.09;4319703;33;33967;-79
2022/11/24 10:03:57;;;;;;;1.92;1.80;;;;;;;7.14;76.72;98590.81;4306523;33;36017;-80
2022/11/24 10:07:22;;;;;;;1.37;1.30;;;;;;;6.98;78.38;98610.81;4318473;33;34436;-79
2022/11/24 10:10:05;;;;;;;1.73;1.63;;;;;;;7.25;76.56;98608.84;4288010;33;34105;-78
2022/11/24 10:13:10;;;;;;;1.27;1.17;;;;;;;7.16;76.59;98609.78;4318478;33;33851;-79
2022/11/24 10:15:58;;;;;;;3.05;2.75;;;;;;;7.22;77.82;98613.19;4290490;33;35196;-80
2022/11/24 10:18:41;;;;;;;1.85;1.75;;;;;;;7.26;77.47;98611.44;4290496;33;34482;-78
2022/11/24 10:21:27;;;;;;;9.45;4.25;;;;;;;7.37;76.90;98617.34;4290550;33;33354;-80
2022/11/24 10:24:34;;;;;;;1.85;1.75;;;;;;;7.45;77.76;98616.41;4293473;33;33759;-79
2022/11/24 10:27:17;;;;;;;3.35;3.08;;;;;;;7.50;77.74;98619.81;4304623;33;34938;-77
2022/11/24 10:29:48;;;;;;;0.70;0.70;;;;;;;7.77;77.75;98619.53;4304802;33;34379;-79
2022/11/24 10:32:18;;;;;;;1.35;1.35;;;;;;;8.68;73.84;98614.94;4304760;33;33656;-79
2022/11/24 10:34:50;;;;;;;2.75;2.55;;;;;;;9.55;73.52;98615.25;4303744;33;34648;-79
2022/11/24 10:37:29;;;;;;;1.80;1.70;;;;;;;10.36;70.40;98612.81;4290774;33;35021;-80
2022/11/24 10:40:21;;;;;;;1.77;1.45;;;;;;;10.76;66.19;98611.06;4296668;33;34439;-79
2022/11/24 10:43:10;;;;;;;1.90;1.80;;;;;;;10.17;67.44;98614.06;4290243;33;34225;-79
2022/11/24 10:45:39;;;;;;;1.92;1.83;;;;;;;9.84;66.30;98621.66;4304900;33;33971;-79
2022/11/24 10:48:22;;;;;;;1.27;1.17;;;;;;;9.90;64.99;98626.75;4306441;33;34544;-80
2022/11/24 10:51:04;;;;;;;2.92;1.50;;;;;;;9.45;66.58;98634.50;4319313;33;34414;-79
2022/11/24 10:53:33;;;;;;;1.98;1.85;;;;;;;8.93;69.89;98631.03;4318431;33;34228;-79
2022/11/24 10:56:04;;;;;;;0.80;0.80;;;;;;;9.02;68.79;98635.22;4319217;33;34005;-78
2022/11/24 10:58:37;;;;;;;1.77;1.67;;;;;;;9.17;67.79;98636.72;4319284;33;34258;-78
2022/11/24 11:01:11;;;;;;;7.93;5.57;;;;;;;9.08;68.66;98635.97;4290817;33;34401;-74
2022/11/24 11:03:46;;;;;;;1.20;1.10;;;;;;;8.99;69.27;98638.72;4318210;33;34419;-74
2022/11/24 11:06:22;;;;;;;2.00;1.87;;;;;;;8.82;67.62;98643.31;4291321;33;34946;-78
2022/11/24 11:09:05;;;;;;;1.95;1.85;;;;;;;8.88;67.24;98649.28;4304480;33;35004;-74
2022/11/24 11:11:38;;;;;;;2.12;2.00;;;;;;;8.62;68.51;98653.97;4304455;33;34560;-74
2022/11/24 11:14:09;;;;;;;1.67;1.60;;;;;;;8.58;69.99;98654.88;4291428;33;33495;-74
2022/11/24 11:16:47;;;;;;;3.20;1.50;;;;;;;8.62;68.59;98659.19;4286537;33;34853;-77
2022/11/24 11:19:34;;;;;;;2.90;2.70;;;;;;;8.72;68.46;98659.03;4288903;33;34981;-76
2022/11/24 11:22:25;;;;;;;1.15;1.10;;;;;;;8.39;72.32;98654.25;4314362;33;34484;-75
2022/11/24 11:25:03;;;;;;;3.45;2.15;;;;;;;8.62;70.59;98656.56;4308182;33;33409;-75
2022/11/24 11:27:33;;;;;;;1.27;1.20;;;;;;;8.83;69.61;98658.00;4304032;33;34754;-76
2022/11/24 11:30:16;;;;;;;14.10;3.22;;;;;;;8.76;71.14;98653.78;4302910;33;35168;-76
2022/11/24 11:33:19;;;;;;;4.45;3.50;;;;;;;8.65;71.42;98660.00;4303973;33;34454;-75
2022/11/24 11:36:09;;;;;;;3.12;2.83;;;;;;;8.69;72.35;98666.00;4293182;33;33433;-77
2022/11/24 11:38:38;;;;;;;1.92;1.83;;;;;;;9.02;71.96;98661.19;4290305;33;33994;-78
2022/11/24 11:41:17;;;;;;;3.12;2.25;;;;;;;8.94;71.52;98660.44;4291160;33;34949;-77
2022/11/24 11:43:49;;;;;;;1.35;1.25;;;;;;;8.90;72.12;98664.81;4303803;33;34574;-76
2022/11/24 11:46:17;;;;;;;1.10;1.10;;;;;;;8.85;71.83;98679.59;4304134;33;33507;-76
2022/11/24 11:48:46;;;;;;;1.92;1.62;;;;;;;8.59;72.62;98669.59;4303778;33;34700;-73
2022/11/24 11:51:32;;;;;;;1.60;1.50;;;;;;;8.67;72.88;98671.19;4303804;33;35164;-73
2022/11/24 11:54:31;;;;;;;2.30;2.10;;;;;;;8.26;74.42;98664.78;4303449;33;34440;-78
2022/11/24 11:57:14;;;;;;;2.17;2.08;;;;;;;8.52;74.19;98672.28;4304000;33;33681;-79
2022/11/24 11:59:54;;;;;;;1.75;1.65;;;;;;;8.54;74.07;98670.53;4290937;33;34808;-78
2022/11/24 12:02:25;;;;;;;1.62;1.50;;;;;;;8.33;74.39;98682.00;4304045;33;34956;-78
2022/11/24 12:05:14;;;;;;;1.50;1.42;;;;;;;8.62;73.54;98672.16;4310849;33;34392;-74
2022/11/24 12:07:59;;;;;;;1.87;1.77;;;;;;;8.36;74.90;98673.31;4302922;33;33315;-79
2022/11/24 12:10:41;;;;;;;2.70;2.50;;;;;;;8.15;74.49;98682.19;4317324;33;34709;-79